Time;durP1;ratioP1;P1;durP2;ratioP2;P2;SDS_P1;SDS_P2;PMS_P1;PMS_P2;Temp;Humidity;BMP_temperature;BMP_pressure;BME280_temperature;BME280_humidity;BME280_pressure;Samples;Min_cycle;Max_cycle;Signal;HPM_P1;HPM_P2
2023/07/03 00:02:14;;;;;;;7.30;2.90;;;;;;;15.78;61.41;100150.43;107031;1259;61292;-67
2023/07/03 00:04:45;;;;;;;7.10;3.20;;;;;;;15.79;61.34;100153.19;106528;1257;61269;-67
2023/07/03 00:07:14;;;;;;;9.40;3.20;;;;;;;15.79;61.20;100155.23;106358;1256;75264;-66
2023/07/03 00:09:41;;;;;;;7.30;2.80;;;;;;;15.80;61.17;100153.86;106492;1257;71190;-67
2023/07/03 00:12:10;;;;;;;7.30;3.10;;;;;;;15.80;61.20;100150.61;106135;1257;72779;-67
2023/07/03 00:14:38;;;;;;;6.10;2.80;;;;;;;15.81;61.12;100146.62;106613;1258;61235;-66
2023/07/03 00:17:09;;;;;;;7.10;3.20;;;;;;;15.81;61.04;100144.27;106325;1256;61335;-67
2023/07/03 00:19:36;;;;;;;8.40;3.10;;;;;;;15.81;60.99;100137.80;106307;1256;73946;-68
2023/07/03 00:22:03;;;;;;;9.80;3.30;;;;;;;15.81;61.07;100139.09;107408;1258;70172;-68
2023/07/03 00:24:31;;;;;;;7.30;3.10;;;;;;;15.82;61.29;100139.59;106693;1257;70910;-68
2023/07/03 00:26:58;;;;;;;10.90;3.30;;;;;;;15.83;61.30;100138.70;106448;1257;61449;-68
2023/07/03 00:29:29;;;;;;;6.80;3.20;;;;;;;15.82;61.49;100137.66;106135;1256;61289;-68
2023/07/03 00:31:55;;;;;;;6.00;3.00;;;;;;;15.82;61.45;100129.48;106500;1257;74753;-66
2023/07/03 00:34:23;;;;;;;7.20;3.20;;;;;;;15.82;61.57;100130.97;106545;1256;69985;-69
2023/07/03 00:36:50;;;;;;;7.70;2.90;;;;;;;15.80;61.79;100128.35;106778;1259;72512;-68
2023/07/03 00:39:16;;;;;;;6.90;3.00;;;;;;;15.80;61.87;100127.91;107255;1255;61230;-69
2023/07/03 00:41:43;;;;;;;8.90;3.20;;;;;;;15.78;61.92;100125.34;107176;1256;279807;-65
2023/07/03 00:44:12;;;;;;;6.40;3.00;;;;;;;15.75;62.09;100124.79;108794;1256;74387;-67
2023/07/03 00:46:42;;;;;;;6.60;3.20;;;;;;;15.74;62.13;100120.78;107653;1258;70363;-68
2023/07/03 00:49:10;;;;;;;7.20;3.10;;;;;;;15.73;62.35;100122.20;106906;1256;71289;-68
2023/07/03 00:51:41;;;;;;;6.10;3.10;;;;;;;15.70;62.64;100122.30;107759;1256;61373;-67
2023/07/03 00:54:08;;;;;;;6.60;3.30;;;;;;;15.68;62.85;100120.48;106422;1256;61162;-68
2023/07/03 00:56:35;;;;;;;6.30;3.10;;;;;;;15.67;63.06;100123.48;107027;1256;74664;-66
2023/07/03 00:59:03;;;;;;;8.50;3.20;;;;;;;15.65;63.35;100122.31;107359;1257;71279;-67
2023/07/03 01:01:43;;;;;;;7.50;3.60;;;;;;;15.63;63.63;100120.77;106189;1257;72580;-68
2023/07/03 01:04:12;;;;;;;7.20;3.20;;;;;;;15.61;63.73;100120.64;108277;1256;61113;-66
2023/07/03 01:06:51;;;;;;;7.10;3.20;;;;;;;15.59;63.90;100122.89;106418;1259;61425;-70
2023/07/03 01:09:21;;;;;;;9.50;3.30;;;;;;;15.55;64.19;100124.48;106346;1259;73417;-69
2023/07/03 01:11:49;;;;;;;7.60;3.10;;;;;;;15.52;64.10;100125.34;106437;1256;69983;-68
2023/07/03 01:14:19;;;;;;;9.40;3.40;;;;;;;15.46;64.00;100122.51;106517;1257;72712;-68
2023/07/03 01:16:48;;;;;;;6.40;3.10;;;;;;;15.41;64.18;100118.61;107455;1256;62061;-67
2023/07/03 01:19:22;;;;;;;8.50;3.40;;;;;;;15.36;64.30;100117.56;106743;1259;61257;-67
2023/07/03 01:22:01;;;;;;;6.60;3.20;;;;;;;15.30;64.38;100118.80;106666;1259;74775;-69
2023/07/03 01:24:31;;;;;;;7.30;3.40;;;;;;;15.25;64.26;100115.23;106604;1259;71220;-68
2023/07/03 01:27:01;;;;;;;8.90;3.20;;;;;;;15.21;64.15;100113.83;106522;1259;71504;-68
2023/07/03 01:29:30;;;;;;;7.20;3.30;;;;;;;15.19;64.07;100114.14;106653;1257;59878;-67
2023/07/03 01:31:58;;;;;;;7.60;3.20;;;;;;;15.19;64.35;100113.43;106758;1256;61247;-67
2023/07/03 01:34:27;;;;;;;6.90;3.30;;;;;;;15.20;64.24;100111.74;107739;1256;74762;-69
2023/07/03 01:36:57;;;;;;;7.30;3.40;;;;;;;15.23;64.08;100109.88;106515;1257;69992;-67
2023/07/03 01:39:25;;;;;;;7.60;3.30;;;;;;;15.27;63.91;100108.09;106197;1262;71522;-71
2023/07/03 01:41:52;;;;;;;8.40;3.80;;;;;;;15.31;63.68;100106.64;106250;1256;62000;-67
2023/07/03 01:44:19;;;;;;;8.20;3.60;;;;;;;15.34;63.71;100103.27;106556;1256;61626;-68
2023/07/03 01:46:46;;;;;;;7.10;3.40;;;;;;;15.36;63.77;100098.84;106275;1257;76853;-69
2023/07/03 01:49:14;;;;;;;7.20;3.80;;;;;;;15.36;63.73;100098.48;106436;1256;70377;-68
2023/07/03 01:52:03;;;;;;;8.70;3.90;;;;;;;15.34;63.94;100090.92;107310;1255;73305;-66
2023/07/03 01:54:50;;;;;;;8.40;3.40;;;;;;;15.33;63.91;100087.70;106949;1256;61135;-66
2023/07/03 01:57:22;;;;;;;8.90;3.70;;;;;;;15.32;64.25;100092.88;106337;1256;61976;-68
2023/07/03 01:59:52;;;;;;;6.90;3.50;;;;;;;15.31;64.26;100090.50;106198;1256;73623;-68
2023/07/03 02:02:24;;;;;;;10.20;3.60;;;;;;;15.32;64.27;100090.65;106512;1256;69715;-67
2023/07/03 02:05:16;;;;;;;10.10;3.30;;;;;;;15.36;64.35;100092.15;106460;1256;72505;-68
2023/07/03 02:07:45;;;;;;;7.80;3.20;;;;;;;15.42;64.28;100093.40;106269;1256;61736;-67
2023/07/03 02:10:12;;;;;;;10.70;3.30;;;;;;;15.47;64.14;100098.27;107091;1256;61267;-69
2023/07/03 02:12:41;;;;;;;9.00;3.60;;;;;;;15.54;64.12;100098.30;107089;1256;73438;-67
2023/07/03 02:15:08;;;;;;;8.50;3.50;;;;;;;15.59;63.95;100092.04;106777;1256;71455;-67
2023/07/03 02:17:36;;;;;;;8.30;3.80;;;;;;;15.64;64.11;100092.39;106544;1259;71671;-67
2023/07/03 02:20:05;;;;;;;8.20;3.50;;;;;;;15.67;64.10;100086.76;106264;1259;61276;-68
2023/07/03 02:22:31;;;;;;;9.00;3.60;;;;;;;15.69;64.16;100095.13;106327;1257;61401;-66
2023/07/03 02:24:58;;;;;;;11.80;4.10;;;;;;;15.73;64.38;100096.60;106066;1256;61215;-67
2023/07/03 02:27:25;;;;;;;11.40;3.90;;;;;;;15.73;64.44;100097.59;106355;1256;69956;-67
2023/07/03 02:29:52;;;;;;;9.70;3.60;;;;;;;15.69;64.83;100094.84;106948;1255;72590;-68
2023/07/03 02:32:19;;;;;;;10.10;4.20;;;;;;;15.66;64.96;100092.73;106594;1256;61246;-68
2023/07/03 02:34:46;;;;;;;9.70;3.70;;;;;;;15.63;65.05;100091.89;106706;1256;61257;-67
2023/07/03 02:37:13;;;;;;;10.70;3.60;;;;;;;15.62;65.46;100093.23;106642;1257;74790;-66
2023/07/03 02:39:40;;;;;;;10.00;3.70;;;;;;;15.60;65.71;100094.78;106109;1256;71192;-68
2023/07/03 02:42:07;;;;;;;9.80;4.10;;;;;;;15.59;65.93;100092.36;106121;1256;71461;-67
2023/07/03 02:44:34;;;;;;;9.00;3.60;;;;;;;15.59;66.11;100092.08;106354;1256;61242;-67
2023/07/03 02:47:01;;;;;;;10.10;3.90;;;;;;;15.59;66.28;100089.40;107201;1256;61247;-66
2023/07/03 02:49:31;;;;;;;10.80;3.90;;;;;;;15.57;66.34;100090.20;107058;1259;73790;-66
2023/07/03 02:51:57;;;;;;;11.10;3.50;;;;;;;15.58;66.37;100083.23;106359;1257;70417;-68
2023/07/03 02:54:24;;;;;;;9.10;3.80;;;;;;;15.59;66.31;100078.14;106347;1256;71366;-68
2023/07/03 02:56:51;;;;;;;10.30;3.80;;;;;;;15.63;66.48;100077.66;106808;1256;60704;-67
2023/07/03 02:59:17;;;;;;;10.80;4.10;;;;;;;15.65;66.35;100078.35;106397;1257;61363;-68
2023/07/03 03:01:44;;;;;;;10.50;3.90;;;;;;;15.66;66.24;100076.03;106321;1259;74730;-66
2023/07/03 03:04:11;;;;;;;10.10;3.70;;;;;;;15.64;66.53;100079.30;106148;1256;70319;-67
2023/07/03 03:06:38;;;;;;;9.40;3.90;;;;;;;15.60;66.81;100075.28;107319;1256;70246;-68
2023/07/03 03:09:05;;;;;;;12.70;4.20;;;;;;;15.56;66.93;100076.06;106189;1256;62118;-67
2023/07/03 03:11:32;;;;;;;11.40;3.80;;;;;;;15.53;67.29;100073.89;106198;1259;61308;-65
2023/07/03 03:13:58;;;;;;;10.00;3.80;;;;;;;15.52;67.44;100078.79;106386;1257;72648;-67
2023/07/03 03:16:25;;;;;;;10.80;4.00;;;;;;;15.52;67.59;100076.23;106351;1257;62731;-67
2023/07/03 03:18:52;;;;;;;10.80;3.80;;;;;;;15.54;67.86;100076.80;106328;1256;71546;-66
2023/07/03 03:21:18;;;;;;;8.90;3.50;;;;;;;15.55;67.90;100076.29;106449;1256;61617;-68
2023/07/03 03:23:46;;;;;;;11.10;3.80;;;;;;;15.56;68.03;100076.27;107319;1255;61180;-67
2023/07/03 03:26:13;;;;;;;9.90;4.00;;;;;;;15.58;68.24;100081.86;106326;1257;73940;-69
2023/07/03 03:28:40;;;;;;;13.30;3.90;;;;;;;15.60;68.42;100079.60;106596;1256;69633;-68
2023/07/03 03:31:06;;;;;;;12.40;4.30;;;;;;;15.61;68.58;100081.30;106559;1257;61266;-67
2023/07/03 03:33:33;;;;;;;9.50;4.00;;;;;;;15.64;68.53;100078.31;106503;1257;61753;-67
2023/07/03 03:36:00;;;;;;;10.00;4.40;;;;;;;15.67;68.35;100078.85;106402;1259;61298;-68
2023/07/03 03:38:26;;;;;;;12.20;3.80;;;;;;;15.68;68.50;100081.88;106529;1259;61735;-70
2023/07/03 03:40:55;;;;;;;11.50;4.00;;;;;;;15.71;68.55;100081.00;106984;1257;70058;-68
2023/07/03 03:43:22;;;;;;;9.10;3.90;;;;;;;15.72;68.46;100083.73;107313;1256;70513;-67
2023/07/03 03:45:57;;;;;;;13.10;4.30;;;;;;;15.73;68.55;100079.48;106375;1256;61865;-67
2023/07/03 03:48:27;;;;;;;12.90;4.30;;;;;;;15.74;68.88;100082.51;106383;1256;61663;-69
2023/07/03 03:50:55;;;;;;;12.10;4.30;;;;;;;15.74;68.99;100082.02;106600;1256;73885;-68
2023/07/03 03:53:23;;;;;;;13.60;4.20;;;;;;;15.72;69.10;100081.05;106488;1256;71258;-68
2023/07/03 03:55:51;;;;;;;9.50;3.80;;;;;;;15.68;69.16;100081.89;106448;1256;70968;-67
2023/07/03 03:58:20;;;;;;;11.40;4.20;;;;;;;15.65;69.33;100082.70;106208;1257;61704;-69
2023/07/03 04:00:47;;;;;;;11.00;4.20;;;;;;;15.60;69.45;100084.61;106616;1256;61325;-67
2023/07/03 04:03:14;;;;;;;11.30;4.30;;;;;;;15.55;69.75;100088.60;106831;1257;74832;-67
2023/07/03 04:05:41;;;;;;;11.70;4.00;;;;;;;15.49;69.79;100087.36;106163;1259;61358;-67
2023/07/03 04:08:09;;;;;;;11.40;4.10;;;;;;;15.45;70.15;100084.58;105991;1261;71127;-69
2023/07/03 04:10:36;;;;;;;11.70;4.20;;;;;;;15.43;70.40;100079.70;108324;1256;61101;-66
2023/07/03 04:13:03;;;;;;;10.90;4.00;;;;;;;15.41;70.37;100079.80;106582;1259;61355;-68
2023/07/03 04:15:35;;;;;;;11.80;4.40;;;;;;;15.40;70.63;100084.09;106396;1258;73740;-68
2023/07/03 04:18:01;;;;;;;10.50;4.10;;;;;;;15.40;70.78;100085.56;106889;1260;70478;-67
2023/07/03 04:20:28;;;;;;;13.20;4.70;;;;;;;15.42;70.83;100088.97;107507;1257;72812;-68
2023/07/03 04:22:55;;;;;;;10.50;4.00;;;;;;;15.43;70.88;100089.33;106536;1255;61270;-68
2023/07/03 04:25:22;;;;;;;10.10;4.20;;;;;;;15.43;70.92;100089.11;106436;1256;61366;-67
2023/07/03 04:27:49;;;;;;;11.60;4.00;;;;;;;15.44;71.01;100091.01;106427;1257;74799;-67
2023/07/03 04:30:15;;;;;;;10.90;4.20;;;;;;;15.44;71.15;100091.16;106180;1256;72302;-68
2023/07/03 04:32:42;;;;;;;9.60;3.70;;;;;;;15.45;71.05;100094.73;106329;1257;71433;-65
2023/07/03 04:35:09;;;;;;;9.30;3.90;;;;;;;15.48;71.13;100095.10;106247;1256;61327;-66
2023/07/03 04:37:36;;;;;;;10.50;4.10;;;;;;;15.51;71.10;100097.42;107071;1259;61257;-67
2023/07/03 04:40:04;;;;;;;12.10;4.50;;;;;;;15.55;70.86;100098.65;106723;1259;73480;-66
2023/07/03 04:42:31;;;;;;;10.00;4.20;;;;;;;15.58;70.58;100097.02;106627;1256;70117;-66
2023/07/03 04:45:01;;;;;;;9.70;4.20;;;;;;;15.62;70.59;100096.44;106332;1256;72951;-67
2023/07/03 04:47:28;;;;;;;9.90;4.10;;;;;;;15.65;70.56;100087.35;106260;1256;61871;-70
2023/07/03 04:49:58;;;;;;;10.40;4.00;;;;;;;15.66;70.45;100084.96;106318;1264;61221;-69
2023/07/03 04:52:27;;;;;;;10.90;4.20;;;;;;;15.65;70.44;100088.80;106433;1257;73917;-70
2023/07/03 04:54:54;;;;;;;9.80;4.10;;;;;;;15.66;70.76;100083.52;107208;1259;69727;-69
2023/07/03 04:57:21;;;;;;;13.30;4.10;;;;;;;15.65;70.80;100081.02;107414;1256;71489;-69
2023/07/03 04:59:48;;;;;;;9.80;3.70;;;;;;;15.64;71.07;100078.23;106417;1260;61116;-71
2023/07/03 05:02:18;;;;;;;10.40;3.90;;;;;;;15.64;71.13;100076.84;106810;1256;61948;-70
2023/07/03 05:04:45;;;;;;;12.20;4.30;;;;;;;15.66;71.17;100079.03;106827;1258;73450;-70
2023/07/03 05:07:12;;;;;;;10.20;3.70;;;;;;;15.68;71.17;100078.84;106415;1256;70080;-69
2023/07/03 05:09:40;;;;;;;10.60;4.00;;;;;;;15.71;70.93;100083.51;106436;1256;73204;-71
2023/07/03 05:12:07;;;;;;;14.30;4.10;;;;;;;15.72;70.66;100080.84;106973;1257;61486;-70
2023/07/03 05:14:35;;;;;;;12.00;3.90;;;;;;;15.75;70.70;100085.52;106555;1261;61256;-70
2023/07/03 05:17:02;;;;;;;12.00;3.90;;;;;;;15.78;70.36;100092.13;106682;1258;73467;-71
2023/07/03 05:19:29;;;;;;;10.30;3.70;;;;;;;15.79;69.95;100090.34;106128;1257;71257;-69
2023/07/03 05:21:56;;;;;;;13.10;4.20;;;;;;;15.82;69.85;100086.73;106234;1256;71489;-70
2023/07/03 05:24:22;;;;;;;10.90;3.50;;;;;;;15.86;69.69;100091.34;106966;1257;62009;-70
2023/07/03 05:26:49;;;;;;;9.10;3.80;;;;;;;15.93;69.35;100093.71;106510;1256;61367;-71
2023/07/03 05:29:16;;;;;;;9.50;3.50;;;;;;;15.99;68.85;100093.94;107686;1256;75192;-69
2023/07/03 05:31:44;;;;;;;12.80;3.50;;;;;;;16.05;68.64;100099.09;106919;1256;69382;-70
2023/07/03 05:34:11;;;;;;;11.20;3.70;;;;;;;16.13;68.86;100097.42;107346;1256;73633;-70
2023/07/03 05:36:38;;;;;;;10.10;3.40;;;;;;;16.19;68.42;100102.67;106916;1259;62356;-70
2023/07/03 05:39:04;;;;;;;10.90;3.30;;;;;;;16.25;68.19;100098.23;106623;1255;61220;-71
2023/07/03 05:41:31;;;;;;;10.00;3.60;;;;;;;16.27;67.59;100096.73;106612;1257;73468;-70
2023/07/03 05:43:58;;;;;;;12.10;3.50;;;;;;;16.31;67.74;100104.29;108825;1257;71891;-69
2023/07/03 05:46:25;;;;;;;11.30;3.70;;;;;;;16.39;67.89;100107.48;108972;1256;71736;-68
2023/07/03 05:48:52;;;;;;;8.40;3.10;;;;;;;16.47;67.46;100137.64;108855;1256;61638;-70
2023/07/03 05:51:19;;;;;;;13.00;3.20;;;;;;;16.51;67.05;100137.45;108990;1256;60388;-68
2023/07/03 05:53:45;;;;;;;11.90;3.60;;;;;;;16.59;67.21;100135.95;108829;1255;75439;-67
2023/07/03 05:56:12;;;;;;;11.20;3.30;;;;;;;16.63;67.03;100133.77;109000;1257;71280;-69
2023/07/03 05:58:39;;;;;;;10.00;3.00;;;;;;;16.66;66.25;100136.70;107547;1256;61196;-69
2023/07/03 06:01:06;;;;;;;11.60;3.70;;;;;;;16.67;66.27;100132.66;106686;1257;62029;-69
2023/07/03 06:03:33;;;;;;;12.60;3.70;;;;;;;16.74;66.54;100133.13;106811;1256;61337;-72
2023/07/03 06:05:59;;;;;;;9.70;2.90;;;;;;;16.81;67.40;100136.87;107007;1259;73947;-68
2023/07/03 06:08:26;;;;;;;12.30;3.60;;;;;;;16.92;66.90;100135.48;107393;1256;69065;-71
2023/07/03 06:10:53;;;;;;;11.10;3.50;;;;;;;17.08;66.04;100139.84;107775;1258;71676;-69
2023/07/03 06:13:19;;;;;;;13.80;3.80;;;;;;;17.18;65.33;100135.77;107103;1257;62084;-69
2023/07/03 06:15:46;;;;;;;11.70;3.50;;;;;;;17.22;65.20;100139.04;106638;1256;61330;-69
2023/07/03 06:18:14;;;;;;;10.70;3.20;;;;;;;17.29;65.17;100141.67;106657;1257;74777;-69
2023/07/03 06:20:40;;;;;;;12.60;3.20;;;;;;;17.34;64.65;100158.26;107128;1257;70378;-70
2023/07/03 06:23:07;;;;;;;11.90;3.60;;;;;;;17.36;63.93;100162.84;107088;1257;71626;-69
2023/07/03 06:25:34;;;;;;;16.40;4.10;;;;;;;17.38;63.53;100159.35;106471;1257;61239;-71
2023/07/03 06:28:01;;;;;;;10.30;3.30;;;;;;;17.48;63.96;100156.98;107048;1257;61401;-72
2023/07/03 06:30:28;;;;;;;14.80;4.40;;;;;;;17.57;63.66;100158.77;106879;1260;74372;-71
2023/07/03 06:32:54;;;;;;;16.90;7.20;;;;;;;17.65;63.53;100153.04;106661;1256;69819;-71
2023/07/03 06:35:21;;;;;;;16.30;8.00;;;;;;;17.71;62.43;100166.21;106837;1256;71612;-71
2023/07/03 06:37:48;;;;;;;14.10;4.70;;;;;;;17.72;62.13;100163.22;106693;1256;62037;-70
2023/07/03 06:40:15;;;;;;;10.90;3.30;;;;;;;17.71;61.66;100164.72;107681;1256;59753;-72
2023/07/03 06:42:43;;;;;;;12.60;3.60;;;;;;;17.75;61.48;100175.34;107849;1259;74586;-72
2023/07/03 06:45:10;;;;;;;14.30;5.30;;;;;;;17.78;61.69;100180.03;107429;1260;71647;-72
2023/07/03 06:47:37;;;;;;;12.70;3.70;;;;;;;17.81;61.25;100178.04;106722;1257;71277;-71
2023/07/03 06:50:04;;;;;;;12.50;3.80;;;;;;;17.86;61.14;100180.83;107576;1256;61276;-69
2023/07/03 06:52:34;;;;;;;22.20;11.70;;;;;;;17.83;61.03;100185.29;107312;1256;60688;-72
2023/07/03 06:55:01;;;;;;;9.80;3.40;;;;;;;17.86;61.29;100183.80;107161;1257;75050;-72
2023/07/03 06:57:28;;;;;;;13.00;5.70;;;;;;;17.83;61.02;100191.23;106583;1256;69842;-67
2023/07/03 06:59:54;;;;;;;15.50;7.20;;;;;;;17.81;60.95;100191.02;106843;1256;61344;-68
2023/07/03 07:02:21;;;;;;;11.70;3.40;;;;;;;17.76;61.43;100192.34;106711;1256;61336;-70
2023/07/03 07:04:52;;;;;;;20.90;11.00;;;;;;;17.80;61.90;100189.95;107100;1256;62187;-69
2023/07/03 07:07:19;;;;;;;11.40;3.70;;;;;;;17.78;61.36;100191.64;106749;1256;73163;-69
2023/07/03 07:09:46;;;;;;;12.60;3.40;;;;;;;17.75;61.33;100191.94;106719;1257;72283;-70
2023/07/03 07:12:12;;;;;;;14.30;4.80;;;;;;;17.75;61.47;100192.96;106915;1256;72483;-69
2023/07/03 07:14:39;;;;;;;8.80;3.00;;;;;;;17.82;61.84;100191.41;107817;1256;61203;-71
2023/07/03 07:17:06;;;;;;;11.80;3.30;;;;;;;17.87;61.29;100192.52;106680;1259;61162;-68
2023/07/03 07:19:33;;;;;;;10.50;3.30;;;;;;;17.90;61.17;100189.84;106530;1257;73472;-70
2023/07/03 07:22:00;;;;;;;11.60;2.80;;;;;;;18.03;61.59;100186.73;106780;1262;71003;-69
2023/07/03 07:24:28;;;;;;;9.80;2.80;;;;;;;18.18;61.30;100188.79;106619;1257;72643;-70
2023/07/03 07:26:54;;;;;;;12.20;3.60;;;;;;;18.31;60.99;100187.23;107138;1257;59605;-68
2023/07/03 07:29:24;;;;;;;11.20;3.00;;;;;;;18.42;60.33;100188.68;107940;1256;61169;-68
2023/07/03 07:31:56;;;;;;;9.90;3.00;;;;;;;18.52;60.25;100187.95;106932;1259;73675;-69
2023/07/03 07:34:23;;;;;;;12.00;3.20;;;;;;;18.60;59.60;100178.85;106608;1260;70552;-68
2023/07/03 07:40:43;;;;;;;11.00;3.30;;;;;;;18.59;58.73;100185.79;106823;1257;61262;-70
2023/07/03 07:43:12;;;;;;;11.70;3.40;;;;;;;18.49;59.29;100184.74;106512;1257;61337;-69
2023/07/03 07:45:39;;;;;;;11.90;4.00;;;;;;;18.43;59.67;100182.95;106433;1259;73864;-70
2023/07/03 07:48:06;;;;;;;13.20;3.20;;;;;;;18.32;59.70;100193.54;106237;1258;70931;-70
2023/07/03 07:50:35;;;;;;;9.90;3.00;;;;;;;18.19;60.08;100194.18;106576;1261;72650;-70
2023/07/03 07:53:02;;;;;;;10.50;3.00;;;;;;;18.04;60.68;100202.86;106055;1261;61281;-69
2023/07/03 07:55:29;;;;;;;12.10;3.20;;;;;;;17.89;61.22;100202.27;105692;1257;61171;-69
2023/07/03 07:57:56;;;;;;;10.50;3.40;;;;;;;17.77;62.05;100197.92;106355;1257;74661;-70
2023/07/03 08:00:23;;;;;;;10.30;3.60;;;;;;;17.66;62.34;100195.55;105736;1260;68986;-68
2023/07/03 08:02:49;;;;;;;11.70;3.00;;;;;;;17.59;62.65;100208.36;106170;1257;70464;-69
2023/07/03 08:05:16;;;;;;;12.20;2.90;;;;;;;17.53;63.26;100204.91;106677;1256;61364;-69
2023/07/03 08:07:43;;;;;;;10.60;3.40;;;;;;;17.50;63.62;100208.06;105960;1258;62883;-69
2023/07/03 08:10:10;;;;;;;15.40;3.70;;;;;;;17.49;63.81;100208.52;105787;1259;73988;-71
2023/07/03 08:12:37;;;;;;;11.90;3.20;;;;;;;17.46;64.01;100203.58;106148;1257;71218;-69
2023/07/03 08:15:05;;;;;;;14.20;4.00;;;;;;;17.44;64.12;100207.66;106300;1256;70513;-71
2023/07/03 08:17:32;;;;;;;11.90;3.80;;;;;;;17.45;64.25;100206.79;106779;1257;61966;-70
2023/07/03 08:19:59;;;;;;;13.80;4.00;;;;;;;17.53;64.06;100204.48;107783;1259;61249;-70
2023/07/03 08:22:26;;;;;;;12.60;3.60;;;;;;;17.68;64.27;100206.27;106302;1256;74064;-69
2023/07/03 08:24:53;;;;;;;19.90;9.90;;;;;;;17.81;63.69;100214.45;106120;1260;69792;-72
2023/07/03 08:27:20;;;;;;;10.40;3.60;;;;;;;17.88;63.05;100220.36;106121;1260;71526;-69
2023/07/03 08:29:47;;;;;;;11.70;4.50;;;;;;;17.92;62.87;100217.52;105924;1257;61726;-71
2023/07/03 08:32:15;;;;;;;15.10;6.00;;;;;;;18.04;63.11;100222.97;105841;1262;61126;-70
2023/07/03 08:34:42;;;;;;;17.40;8.10;;;;;;;18.07;62.63;100232.86;106399;1262;73504;-71
2023/07/03 08:37:30;;;;;;;14.20;5.00;;;;;;;18.08;62.58;100237.60;106217;1258;73267;-69
2023/07/03 08:39:57;;;;;;;11.90;4.20;;;;;;;18.14;62.76;100231.77;106246;1261;70902;-69
2023/07/03 08:42:31;;;;;;;12.50;3.90;;;;;;;18.31;62.89;100230.84;105827;1258;61338;-72
2023/07/03 08:45:01;;;;;;;11.40;3.80;;;;;;;18.55;61.98;100233.19;105804;1256;61232;-69
2023/07/03 08:47:30;;;;;;;11.80;3.80;;;;;;;18.70;60.96;100229.67;107913;1257;74741;-71
2023/07/03 08:50:02;;;;;;;11.60;3.50;;;;;;;18.83;60.12;100219.73;106024;1256;71040;-68
2023/07/03 08:52:37;;;;;;;12.20;3.70;;;;;;;19.00;59.85;100219.20;106308;1257;72364;-68
2023/07/03 08:55:07;;;;;;;11.90;5.40;;;;;;;19.19;59.03;100223.59;106101;1260;61321;-69
2023/07/03 08:57:37;;;;;;;17.00;4.00;;;;;;;19.29;58.96;100224.86;106093;1257;61139;-70
2023/07/03 09:00:11;;;;;;;13.00;3.60;;;;;;;19.47;59.11;100215.42;106336;1257;73457;-71
2023/07/03 09:02:46;;;;;;;14.00;4.50;;;;;;;19.61;58.37;100217.61;106197;1258;69718;-69
2023/07/03 09:05:39;;;;;;;13.10;4.60;;;;;;;19.70;58.38;100216.79;105839;1257;71815;-70
2023/07/03 09:08:12;;;;;;;15.00;4.20;;;;;;;19.80;57.91;100220.56;106090;1257;61170;-70
2023/07/03 09:10:45;;;;;;;10.80;3.60;;;;;;;19.80;57.74;100228.64;106288;1261;61887;-71
2023/07/03 09:13:23;;;;;;;11.20;3.60;;;;;;;19.72;57.76;100220.32;106056;1262;72790;-68
2023/07/03 09:16:19;;;;;;;8.70;2.90;;;;;;;19.53;57.71;100223.80;106072;1260;71474;-69
2023/07/03 09:18:51;;;;;;;11.60;4.80;;;;;;;19.35;58.24;100235.25;106247;1260;72964;-70
2023/07/03 09:21:20;;;;;;;12.70;4.70;;;;;;;19.29;58.98;100232.98;105738;1260;61439;-70
2023/07/03 09:23:53;;;;;;;8.60;3.00;;;;;;;19.27;58.36;100238.60;106270;1256;61917;-68
2023/07/03 09:26:22;;;;;;;10.80;3.80;;;;;;;19.29;59.01;100232.23;106137;1257;74067;-69
2023/07/03 09:28:50;;;;;;;17.10;7.80;;;;;;;19.42;58.54;100245.19;106305;1259;69956;-70
2023/07/03 09:31:17;;;;;;;12.40;5.20;;;;;;;19.45;57.62;100248.32;105898;1258;72705;-69
2023/07/03 09:33:43;;;;;;;10.30;4.10;;;;;;;19.49;57.67;100247.24;106076;1261;61807;-67
2023/07/03 09:36:30;;;;;;;12.60;4.20;;;;;;;19.47;57.28;100248.87;106126;1258;61744;-70
2023/07/03 09:38:57;;;;;;;9.80;3.20;;;;;;;19.50;55.98;100240.86;105961;1260;73941;-70
2023/07/03 09:41:29;;;;;;;12.60;3.60;;;;;;;19.63;55.84;100235.89;105595;1262;71157;-67
2023/07/03 09:43:56;;;;;;;12.20;4.40;;;;;;;19.82;55.92;100236.58;106013;1262;71921;-70
2023/07/03 09:46:24;;;;;;;9.90;3.00;;;;;;;19.93;54.41;100235.66;106374;1258;61341;-70
2023/07/03 09:48:51;;;;;;;11.10;3.50;;;;;;;20.06;53.73;100232.70;105851;1257;61319;-69
2023/07/03 09:51:26;;;;;;;10.20;3.50;;;;;;;20.18;53.89;100221.00;106503;1262;74636;-70
2023/07/03 09:54:04;;;;;;;10.50;3.50;;;;;;;20.30;54.04;100222.73;106539;1261;70927;-68
2023/07/03 09:56:32;;;;;;;11.60;3.10;;;;;;;20.33;54.33;100222.80;106032;1257;72709;-69
2023/07/03 09:59:03;;;;;;;13.60;4.10;;;;;;;20.29;53.56;100222.66;106522;1257;59676;-69
2023/07/03 10:01:32;;;;;;;9.50;3.30;;;;;;;20.40;53.92;100229.08;105850;1262;61497;-68
2023/07/03 10:04:11;;;;;;;10.70;3.70;;;;;;;20.55;54.03;100232.99;106375;1260;72730;-69
2023/07/03 10:07:06;;;;;;;10.40;3.70;;;;;;;20.55;52.35;100233.73;106277;1259;70112;-69
2023/07/03 10:09:39;;;;;;;9.70;3.00;;;;;;;20.44;52.83;100237.05;105994;1263;72737;-70
2023/07/03 10:12:31;;;;;;;10.20;3.20;;;;;;;20.30;53.02;100228.05;106368;1257;61202;-69
2023/07/03 10:15:08;;;;;;;13.90;7.00;;;;;;;20.21;52.76;100236.11;106047;1257;61267;-69
2023/07/03 10:17:44;;;;;;;11.10;3.40;;;;;;;20.03;52.27;100243.32;105961;1260;73213;-68
2023/07/03 10:20:18;;;;;;;10.10;4.30;;;;;;;19.81;52.48;100253.41;106107;1260;71186;-69
2023/07/03 10:22:49;;;;;;;10.50;3.00;;;;;;;19.64;53.03;100245.70;106304;1257;71222;-69
2023/07/03 10:25:21;;;;;;;10.30;4.10;;;;;;;19.52;54.17;100250.35;106073;1257;61285;-70
2023/07/03 10:27:51;;;;;;;12.40;3.80;;;;;;;19.42;54.37;100250.73;105939;1256;61289;-68
2023/07/03 10:30:19;;;;;;;12.40;3.30;;;;;;;19.30;55.03;100253.78;106466;1256;73744;-69
2023/07/03 10:32:49;;;;;;;16.00;7.30;;;;;;;19.17;55.27;100252.74;106973;1257;69981;-69
2023/07/03 10:35:24;;;;;;;9.10;3.30;;;;;;;18.97;57.33;100266.33;106225;1257;72541;-69
2023/07/03 10:38:17;;;;;;;10.20;3.40;;;;;;;18.57;63.62;100286.58;106439;1260;61340;-69
2023/07/03 10:41:07;;;;;;;12.60;4.70;;;;;;;17.69;69.21;100282.10;105771;1264;61271;-68
2023/07/03 10:43:45;;;;;;;11.70;3.70;;;;;;;17.06;71.87;100290.06;105895;1257;73151;-69
2023/07/03 10:46:42;;;;;;;12.20;3.90;;;;;;;16.64;74.84;100292.71;105864;1257;71187;-67
2023/07/03 10:49:19;;;;;;;14.10;4.50;;;;;;;16.37;77.28;100300.11;105899;1256;71474;-68
2023/07/03 10:51:50;;;;;;;12.50;4.00;;;;;;;16.24;78.99;100300.70;106240;1264;61860;-68
2023/07/03 10:54:22;;;;;;;14.30;4.90;;;;;;;16.23;80.04;100296.44;106647;1255;60465;-67
2023/07/03 10:56:55;;;;;;;13.70;4.70;;;;;;;16.34;80.14;100292.11;105920;1259;74684;-68
2023/07/03 10:59:27;;;;;;;15.10;4.80;;;;;;;16.56;80.69;100290.91;106286;1260;69985;-67
2023/07/03 11:02:12;;;;;;;14.40;4.80;;;;;;;16.78;80.02;100291.66;106273;1257;71526;-67
2023/07/03 11:05:25;;;;;;;11.80;4.20;;;;;;;17.10;79.26;100281.23;106231;1257;61320;-68
2023/07/03 11:08:17;;;;;;;12.00;3.90;;;;;;;17.46;77.36;100276.19;105826;1266;61347;-68
2023/07/03 11:11:06;;;;;;;11.20;4.00;;;;;;;17.66;74.11;100281.33;106202;1258;74040;-68
2023/07/03 11:14:03;;;;;;;10.10;3.30;;;;;;;17.77;71.36;100278.59;106696;1256;68702;-70
2023/07/03 11:16:58;;;;;;;11.60;3.30;;;;;;;17.99;69.84;100276.11;105958;1258;72789;-69
2023/07/03 11:20:08;;;;;;;11.30;3.40;;;;;;;18.22;69.33;100274.73;105894;1258;62953;-68
2023/07/03 11:22:46;;;;;;;14.50;4.20;;;;;;;18.58;68.28;100268.13;106127;1257;61266;-69
2023/07/03 11:25:37;;;;;;;11.60;3.00;;;;;;;18.81;63.91;100267.98;106232;1260;73833;-71
2023/07/03 11:28:16;;;;;;;8.80;3.00;;;;;;;18.95;63.51;100259.06;105784;1260;70511;-67
2023/07/03 11:30:43;;;;;;;11.50;3.20;;;;;;;19.17;63.18;100262.40;106204;1256;71983;-68